sensor_id;sensor_type;location;lat;lon;timestamp;P1;durP1;ratioP1;P2;durP2;ratioP2
23250;SDS011;11794;49.730;10.088;2022-07-23T00:00:29;6.85;;;3.10;;
23250;SDS011;11794;49.730;10.088;2022-07-23T00:02:54;7.47;;;3.15;;
23250;SDS011;11794;49.730;10.088;2022-07-23T00:05:20;10.87;;;3.40;;
23250;SDS011;11794;49.730;10.088;2022-07-23T00:07:45;8.13;;;3.22;;
23250;SDS011;11794;49.730;10.088;2022-07-23T00:10:11;7.00;;;2.93;;
23250;SDS011;11794;49.730;10.088;2022-07-23T00:12:37;8.60;;;3.40;;
23250;SDS011;11794;49.730;10.088;2022-07-23T00:15:04;10.10;;;2.90;;
23250;SDS011;11794;49.730;10.088;2022-07-23T00:17:31;9.38;;;3.55;;
23250;SDS011;11794;49.730;10.088;2022-07-23T00:19:56;8.82;;;3.13;;
23250;SDS011;11794;49.730;10.088;2022-07-23T00:22:22;7.80;;;3.13;;
23250;SDS011;11794;49.730;10.088;2022-07-23T00:24:48;9.88;;;3.25;;
23250;SDS011;11794;49.730;10.088;2022-07-23T00:27:13;8.73;;;3.30;;
23250;SDS011;11794;49.730;10.088;2022-07-23T00:29:39;8.48;;;3.30;;
23250;SDS011;11794;49.730;10.088;2022-07-23T00:32:04;9.70;;;3.70;;
23250;SDS011;11794;49.730;10.088;2022-07-23T00:34:30;9.13;;;3.55;;
23250;SDS011;11794;49.730;10.088;2022-07-23T00:36:56;8.03;;;3.80;;
23250;SDS011;11794;49.730;10.088;2022-07-23T00:39:21;8.57;;;3.70;;
23250;SDS011;11794;49.730;10.088;2022-07-23T00:41:47;8.93;;;3.50;;
23250;SDS011;11794;49.730;10.088;2022-07-23T00:46:51;8.77;;;3.50;;
23250;SDS011;11794;49.730;10.088;2022-07-23T00:49:21;9.45;;;3.58;;
23250;SDS011;11794;49.730;10.088;2022-07-23T00:51:51;8.98;;;3.78;;
23250;SDS011;11794;49.730;10.088;2022-07-23T00:54:17;8.65;;;3.70;;
23250;SDS011;11794;49.730;10.088;2022-07-23T00:56:44;8.30;;;3.50;;
23250;SDS011;11794;49.730;10.088;2022-07-23T00:59:11;9.43;;;3.63;;
23250;SDS011;11794;49.730;10.088;2022-07-23T01:01:37;8.67;;;3.93;;
23250;SDS011;11794;49.730;10.088;2022-07-23T01:04:03;8.32;;;4.10;;
23250;SDS011;11794;49.730;10.088;2022-07-23T01:06:29;9.73;;;3.65;;
23250;SDS011;11794;49.730;10.088;2022-07-23T01:09:00;9.60;;;3.87;;
23250;SDS011;11794;49.730;10.088;2022-07-23T01:11:26;8.63;;;4.07;;
23250;SDS011;11794;49.730;10.088;2022-07-23T01:13:52;9.80;;;4.40;;
23250;SDS011;11794;49.730;10.088;2022-07-23T01:16:18;8.00;;;3.75;;
23250;SDS011;11794;49.730;10.088;2022-07-23T01:18:44;8.88;;;3.90;;
23250;SDS011;11794;49.730;10.088;2022-07-23T01:21:10;9.13;;;4.10;;
23250;SDS011;11794;49.730;10.088;2022-07-23T01:23:40;8.90;;;4.28;;
23250;SDS011;11794;49.730;10.088;2022-07-23T01:26:06;10.35;;;4.18;;
23250;SDS011;11794;49.730;10.088;2022-07-23T01:28:31;8.67;;;3.83;;
23250;SDS011;11794;49.730;10.088;2022-07-23T01:30:57;10.07;;;3.90;;
23250;SDS011;11794;49.730;10.088;2022-07-23T01:33:23;10.33;;;4.13;;
23250;SDS011;11794;49.730;10.088;2022-07-23T01:35:48;9.02;;;4.07;;
23250;SDS011;11794;49.730;10.088;2022-07-23T01:38:14;8.73;;;3.93;;
23250;SDS011;11794;49.730;10.088;2022-07-23T01:40:39;8.90;;;3.83;;
23250;SDS011;11794;49.730;10.088;2022-07-23T01:43:05;8.55;;;3.85;;
23250;SDS011;11794;49.730;10.088;2022-07-23T01:45:30;9.03;;;3.93;;
23250;SDS011;11794;49.730;10.088;2022-07-23T01:47:56;9.13;;;4.00;;
23250;SDS011;11794;49.730;10.088;2022-07-23T01:50:21;8.50;;;3.50;;
23250;SDS011;11794;49.730;10.088;2022-07-23T01:52:47;11.00;;;3.57;;
23250;SDS011;11794;49.730;10.088;2022-07-23T01:55:12;8.60;;;3.80;;
23250;SDS011;11794;49.730;10.088;2022-07-23T01:57:38;9.40;;;4.50;;
23250;SDS011;11794;49.730;10.088;2022-07-23T02:00:04;9.37;;;4.63;;
23250;SDS011;11794;49.730;10.088;2022-07-23T02:02:29;10.20;;;4.50;;
23250;SDS011;11794;49.730;10.088;2022-07-23T02:04:55;12.67;;;4.67;;
23250;SDS011;11794;49.730;10.088;2022-07-23T02:07:20;9.30;;;4.45;;
23250;SDS011;11794;49.730;10.088;2022-07-23T02:09:46;10.00;;;4.40;;
23250;SDS011;11794;49.730;10.088;2022-07-23T02:12:12;11.65;;;4.80;;
23250;SDS011;11794;49.730;10.088;2022-07-23T02:14:37;11.17;;;4.67;;
23250;SDS011;11794;49.730;10.088;2022-07-23T02:17:03;12.57;;;4.30;;
23250;SDS011;11794;49.730;10.088;2022-07-23T02:19:28;11.27;;;4.20;;
23250;SDS011;11794;49.730;10.088;2022-07-23T02:21:54;8.33;;;4.17;;
23250;SDS011;11794;49.730;10.088;2022-07-23T02:24:19;10.93;;;4.30;;
23250;SDS011;11794;49.730;10.088;2022-07-23T02:26:45;9.50;;;4.30;;
23250;SDS011;11794;49.730;10.088;2022-07-23T02:29:11;11.40;;;4.27;;
23250;SDS011;11794;49.730;10.088;2022-07-23T02:31:37;9.50;;;4.38;;
23250;SDS011;11794;49.730;10.088;2022-07-23T02:34:03;10.77;;;4.37;;
23250;SDS011;11794;49.730;10.088;2022-07-23T02:36:28;10.37;;;4.17;;
23250;SDS011;11794;49.730;10.088;2022-07-23T02:38:54;11.18;;;4.47;;
23250;SDS011;11794;49.730;10.088;2022-07-23T02:41:20;11.57;;;4.80;;
23250;SDS011;11794;49.730;10.088;2022-07-23T02:43:45;11.10;;;4.63;;
23250;SDS011;11794;49.730;10.088;2022-07-23T02:46:11;9.90;;;4.40;;
23250;SDS011;11794;49.730;10.088;2022-07-23T02:48:36;14.30;;;4.70;;
23250;SDS011;11794;49.730;10.088;2022-07-23T02:51:02;10.93;;;5.07;;
23250;SDS011;11794;49.730;10.088;2022-07-23T02:53:28;10.53;;;4.50;;
23250;SDS011;11794;49.730;10.088;2022-07-23T02:55:53;10.02;;;4.30;;
23250;SDS011;11794;49.730;10.088;2022-07-23T02:58:19;10.83;;;4.40;;
23250;SDS011;11794;49.730;10.088;2022-07-23T03:00:44;10.00;;;4.38;;
23250;SDS011;11794;49.730;10.088;2022-07-23T03:03:10;10.07;;;4.30;;
23250;SDS011;11794;49.730;10.088;2022-07-23T03:05:36;11.38;;;4.28;;
23250;SDS011;11794;49.730;10.088;2022-07-23T03:08:02;14.77;;;4.43;;
23250;SDS011;11794;49.730;10.088;2022-07-23T03:10:27;11.00;;;4.68;;
23250;SDS011;11794;49.730;10.088;2022-07-23T03:12:53;10.00;;;4.87;;
23250;SDS011;11794;49.730;10.088;2022-07-23T03:15:18;9.23;;;4.10;;
23250;SDS011;11794;49.730;10.088;2022-07-23T03:17:44;9.40;;;3.90;;
23250;SDS011;11794;49.730;10.088;2022-07-23T03:20:09;9.37;;;3.87;;
23250;SDS011;11794;49.730;10.088;2022-07-23T03:22:35;9.30;;;3.92;;
23250;SDS011;11794;49.730;10.088;2022-07-23T03:25:01;9.87;;;4.30;;
23250;SDS011;11794;49.730;10.088;2022-07-23T03:27:27;9.85;;;4.10;;
23250;SDS011;11794;49.730;10.088;2022-07-23T03:29:55;7.97;;;3.77;;
23250;SDS011;11794;49.730;10.088;2022-07-23T03:32:22;9.63;;;4.20;;
23250;SDS011;11794;49.730;10.088;2022-07-23T03:34:48;8.57;;;3.80;;
23250;SDS011;11794;49.730;10.088;2022-07-23T03:37:14;10.23;;;4.38;;
23250;SDS011;11794;49.730;10.088;2022-07-23T03:39:40;10.43;;;4.20;;
23250;SDS011;11794;49.730;10.088;2022-07-23T03:42:06;11.30;;;4.50;;
23250;SDS011;11794;49.730;10.088;2022-07-23T03:44:32;9.43;;;4.10;;
23250;SDS011;11794;49.730;10.088;2022-07-23T03:46:57;9.63;;;4.10;;
23250;SDS011;11794;49.730;10.088;2022-07-23T03:49:23;11.17;;;4.23;;
23250;SDS011;11794;49.730;10.088;2022-07-23T03:51:48;9.90;;;3.85;;
23250;SDS011;11794;49.730;10.088;2022-07-23T03:54:14;8.57;;;3.88;;
23250;SDS011;11794;49.730;10.088;2022-07-23T03:56:40;9.43;;;3.80;;
23250;SDS011;11794;49.730;10.088;2022-07-23T03:59:07;8.70;;;3.60;;
23250;SDS011;11794;49.730;10.088;2022-07-23T04:01:33;9.10;;;3.75;;
23250;SDS011;11794;49.730;10.088;2022-07-23T04:03:59;8.70;;;3.83;;
23250;SDS011;11794;49.730;10.088;2022-07-23T04:06:25;10.48;;;4.20;;
23250;SDS011;11794;49.730;10.088;2022-07-23T04:08:50;8.43;;;3.67;;
23250;SDS011;11794;49.730;10.088;2022-07-23T04:11:16;8.80;;;3.67;;
23250;SDS011;11794;49.730;10.088;2022-07-23T04:13:41;7.93;;;3.60;;
23250;SDS011;11794;49.730;10.088;2022-07-23T04:16:07;8.87;;;3.70;;
23250;SDS011;11794;49.730;10.088;2022-07-23T04:18:32;10.63;;;4.20;;
23250;SDS011;11794;49.730;10.088;2022-07-23T04:20:58;9.27;;;4.50;;
23250;SDS011;11794;49.730;10.088;2022-07-23T04:23:24;10.95;;;4.35;;
23250;SDS011;11794;49.730;10.088;2022-07-23T04:25:49;8.73;;;3.70;;
23250;SDS011;11794;49.730;10.088;2022-07-23T04:28:15;9.68;;;4.10;;
23250;SDS011;11794;49.730;10.088;2022-07-23T04:30:40;9.53;;;4.33;;
23250;SDS011;11794;49.730;10.088;2022-07-23T04:33:06;10.07;;;4.38;;
23250;SDS011;11794;49.730;10.088;2022-07-23T04:35:32;8.87;;;3.63;;
23250;SDS011;11794;49.730;10.088;2022-07-23T04:38:01;7.80;;;3.75;;
23250;SDS011;11794;49.730;10.088;2022-07-23T04:40:27;11.73;;;3.90;;
23250;SDS011;11794;49.730;10.088;2022-07-23T04:42:54;9.60;;;4.05;;
23250;SDS011;11794;49.730;10.088;2022-07-23T04:45:19;9.23;;;3.73;;
23250;SDS011;11794;49.730;10.088;2022-07-23T04:47:45;9.10;;;3.83;;
23250;SDS011;11794;49.730;10.088;2022-07-23T04:50:11;9.40;;;3.95;;
23250;SDS011;11794;49.730;10.088;2022-07-23T04:52:36;10.07;;;4.17;;
23250;SDS011;11794;49.730;10.088;2022-07-23T04:55:02;8.48;;;3.67;;
23250;SDS011;11794;49.730;10.088;2022-07-23T04:57:28;11.10;;;4.00;;
23250;SDS011;11794;49.730;10.088;2022-07-23T04:59:53;10.25;;;3.78;;
23250;SDS011;11794;49.730;10.088;2022-07-23T05:02:19;8.50;;;3.57;;
23250;SDS011;11794;49.730;10.088;2022-07-23T05:04:45;8.15;;;3.55;;
23250;SDS011;11794;49.730;10.088;2022-07-23T05:07:11;8.47;;;3.63;;
23250;SDS011;11794;49.730;10.088;2022-07-23T05:09:36;8.38;;;3.40;;
23250;SDS011;11794;49.730;10.088;2022-07-23T05:12:02;9.00;;;3.67;;
23250;SDS011;11794;49.730;10.088;2022-07-23T05:14:28;8.93;;;3.70;;
23250;SDS011;11794;49.730;10.088;2022-07-23T05:16:53;9.13;;;4.00;;
23250;SDS011;11794;49.730;10.088;2022-07-23T05:19:19;9.02;;;4.00;;
23250;SDS011;11794;49.730;10.088;2022-07-23T05:21:45;7.67;;;3.30;;
23250;SDS011;11794;49.730;10.088;2022-07-23T05:24:10;8.70;;;4.07;;
23250;SDS011;11794;49.730;10.088;2022-07-23T05:26:36;6.93;;;2.97;;
23250;SDS011;11794;49.730;10.088;2022-07-23T05:29:01;7.95;;;3.45;;
23250;SDS011;11794;49.730;10.088;2022-07-23T05:31:27;6.30;;;3.00;;
23250;SDS011;11794;49.730;10.088;2022-07-23T05:33:52;7.60;;;3.60;;
23250;SDS011;11794;49.730;10.088;2022-07-23T05:36:18;7.10;;;3.35;;
23250;SDS011;11794;49.730;10.088;2022-07-23T05:38:43;7.40;;;3.17;;
23250;SDS011;11794;49.730;10.088;2022-07-23T05:41:09;7.87;;;3.43;;
23250;SDS011;11794;49.730;10.088;2022-07-23T05:43:34;8.52;;;3.33;;
23250;SDS011;11794;49.730;10.088;2022-07-23T05:46:00;6.93;;;3.30;;
23250;SDS011;11794;49.730;10.088;2022-07-23T05:48:25;8.00;;;3.22;;
23250;SDS011;11794;49.730;10.088;2022-07-23T05:50:51;7.40;;;3.30;;
23250;SDS011;11794;49.730;10.088;2022-07-23T05:53:17;8.52;;;3.33;;
23250;SDS011;11794;49.730;10.088;2022-07-23T05:55:42;8.60;;;3.40;;
23250;SDS011;11794;49.730;10.088;2022-07-23T05:58:08;8.05;;;3.42;;
23250;SDS011;11794;49.730;10.088;2022-07-23T06:00:34;8.23;;;3.40;;
23250;SDS011;11794;49.730;10.088;2022-07-23T06:02:59;7.45;;;3.05;;
23250;SDS011;11794;49.730;10.088;2022-07-23T06:05:25;8.07;;;3.10;;
23250;SDS011;11794;49.730;10.088;2022-07-23T06:07:51;8.70;;;3.80;;
23250;SDS011;11794;49.730;10.088;2022-07-23T06:10:17;7.50;;;3.40;;
23250;SDS011;11794;49.730;10.088;2022-07-23T06:12:43;8.55;;;3.35;;
23250;SDS011;11794;49.730;10.088;2022-07-23T06:15:09;9.43;;;3.43;;
23250;SDS011;11794;49.730;10.088;2022-07-23T06:17:35;8.10;;;3.72;;
23250;SDS011;11794;49.730;10.088;2022-07-23T06:20:01;8.67;;;3.70;;
23250;SDS011;11794;49.730;10.088;2022-07-23T06:22:26;9.97;;;3.90;;
23250;SDS011;11794;49.730;10.088;2022-07-23T06:24:52;7.80;;;3.60;;
23250;SDS011;11794;49.730;10.088;2022-07-23T06:27:17;9.23;;;3.87;;
23250;SDS011;11794;49.730;10.088;2022-07-23T06:29:43;8.02;;;3.90;;
23250;SDS011;11794;49.730;10.088;2022-07-23T06:32:09;8.57;;;3.70;;
23250;SDS011;11794;49.730;10.088;2022-07-23T06:34:34;7.30;;;3.80;;
23250;SDS011;11794;49.730;10.088;2022-07-23T06:37:00;9.93;;;4.47;;
23250;SDS011;11794;49.730;10.088;2022-07-23T06:39:26;9.48;;;5.13;;
23250;SDS011;11794;49.730;10.088;2022-07-23T06:41:51;8.17;;;4.37;;
23250;SDS011;11794;49.730;10.088;2022-07-23T06:44:17;9.57;;;4.38;;
23250;SDS011;11794;49.730;10.088;2022-07-23T06:46:42;8.80;;;4.53;;
23250;SDS011;11794;49.730;10.088;2022-07-23T06:49:08;8.02;;;4.25;;
23250;SDS011;11794;49.730;10.088;2022-07-23T06:51:34;10.00;;;4.57;;
23250;SDS011;11794;49.730;10.088;2022-07-23T06:53:59;10.20;;;4.88;;
23250;SDS011;11794;49.730;10.088;2022-07-23T06:56:25;10.97;;;4.33;;
23250;SDS011;11794;49.730;10.088;2022-07-23T06:58:50;9.55;;;4.35;;
23250;SDS011;11794;49.730;10.088;2022-07-23T07:01:16;10.07;;;4.47;;
23250;SDS011;11794;49.730;10.088;2022-07-23T07:03:42;8.73;;;4.47;;
23250;SDS011;11794;49.730;10.088;2022-07-23T07:06:07;9.47;;;4.33;;
23250;SDS011;11794;49.730;10.088;2022-07-23T07:08:33;10.68;;;4.35;;
23250;SDS011;11794;49.730;10.088;2022-07-23T07:10:59;8.80;;;4.33;;
23250;SDS011;11794;49.730;10.088;2022-07-23T07:13:24;10.33;;;4.07;;
23250;SDS011;11794;49.730;10.088;2022-07-23T07:15:50;8.68;;;4.03;;
23250;SDS011;11794;49.730;10.088;2022-07-23T07:18:16;10.07;;;4.47;;
23250;SDS011;11794;49.730;10.088;2022-07-23T07:20:41;8.75;;;4.25;;
23250;SDS011;11794;49.730;10.088;2022-07-23T07:23:07;9.40;;;4.03;;
23250;SDS011;11794;49.730;10.088;2022-07-23T07:25:32;9.15;;;4.40;;
23250;SDS011;11794;49.730;10.088;2022-07-23T07:27:58;10.03;;;4.10;;
23250;SDS011;11794;49.730;10.088;2022-07-23T07:30:24;9.43;;;4.27;;
23250;SDS011;11794;49.730;10.088;2022-07-23T07:32:49;11.10;;;3.93;;
23250;SDS011;11794;49.730;10.088;2022-07-23T07:35:15;9.68;;;3.95;;
23250;SDS011;11794;49.730;10.088;2022-07-23T07:37:41;9.27;;;4.53;;
23250;SDS011;11794;49.730;10.088;2022-07-23T07:40:06;9.88;;;4.85;;
23250;SDS011;11794;49.730;10.088;2022-07-23T07:42:33;9.33;;;4.23;;
23250;SDS011;11794;49.730;10.088;2022-07-23T07:44:58;9.88;;;4.47;;
23250;SDS011;11794;49.730;10.088;2022-07-23T07:47:24;10.53;;;4.57;;
23250;SDS011;11794;49.730;10.088;2022-07-23T07:49:50;9.77;;;4.40;;
23250;SDS011;11794;49.730;10.088;2022-07-23T07:52:15;8.90;;;4.37;;
23250;SDS011;11794;49.730;10.088;2022-07-23T07:54:41;10.85;;;4.88;;
23250;SDS011;11794;49.730;10.088;2022-07-23T07:57:07;10.52;;;4.63;;
23250;SDS011;11794;49.730;10.088;2022-07-23T07:59:33;9.07;;;4.30;;
23250;SDS011;11794;49.730;10.088;2022-07-23T08:01:58;8.70;;;4.20;;
23250;SDS011;11794;49.730;10.088;2022-07-23T08:04:24;8.93;;;4.47;;
23250;SDS011;11794;49.730;10.088;2022-07-23T08:06:49;9.40;;;4.37;;
23250;SDS011;11794;49.730;10.088;2022-07-23T08:09:15;8.05;;;4.00;;
23250;SDS011;11794;49.730;10.088;2022-07-23T08:11:40;9.77;;;4.20;;
23250;SDS011;11794;49.730;10.088;2022-07-23T08:14:06;8.30;;;4.00;;
23250;SDS011;11794;49.730;10.088;2022-07-23T08:16:31;8.90;;;4.13;;
23250;SDS011;11794;49.730;10.088;2022-07-23T08:18:57;9.00;;;3.97;;
23250;SDS011;11794;49.730;10.088;2022-07-23T08:21:22;8.23;;;3.92;;
23250;SDS011;11794;49.730;10.088;2022-07-23T08:23:48;10.37;;;3.90;;
23250;SDS011;11794;49.730;10.088;2022-07-23T08:26:13;8.23;;;3.87;;
23250;SDS011;11794;49.730;10.088;2022-07-23T08:28:39;8.82;;;3.80;;
23250;SDS011;11794;49.730;10.088;2022-07-23T08:31:05;7.93;;;3.77;;
23250;SDS011;11794;49.730;10.088;2022-07-23T08:33:31;8.18;;;3.72;;
23250;SDS011;11794;49.730;10.088;2022-07-23T08:35:57;7.93;;;3.73;;
23250;SDS011;11794;49.730;10.088;2022-07-23T08:38:23;7.83;;;3.50;;
23250;SDS011;11794;49.730;10.088;2022-07-23T08:40:51;7.75;;;3.70;;
23250;SDS011;11794;49.730;10.088;2022-07-23T08:43:19;9.50;;;4.00;;
23250;SDS011;11794;49.730;10.088;2022-07-23T08:45:50;7.53;;;3.55;;
23250;SDS011;11794;49.730;10.088;2022-07-23T08:48:17;10.40;;;3.70;;
23250;SDS011;11794;49.730;10.088;2022-07-23T08:50:45;8.50;;;3.67;;
23250;SDS011;11794;49.730;10.088;2022-07-23T08:53:12;9.07;;;3.78;;
23250;SDS011;11794;49.730;10.088;2022-07-23T08:55:39;8.95;;;3.80;;
23250;SDS011;11794;49.730;10.088;2022-07-23T08:58:05;7.77;;;3.60;;
23250;SDS011;11794;49.730;10.088;2022-07-23T09:00:31;10.85;;;3.90;;
23250;SDS011;11794;49.730;10.088;2022-07-23T09:02:58;9.38;;;3.70;;
23250;SDS011;11794;49.730;10.088;2022-07-23T09:05:23;7.68;;;3.67;;
23250;SDS011;11794;49.730;10.088;2022-07-23T09:10:56;9.30;;;3.85;;
23250;SDS011;11794;49.730;10.088;2022-07-23T09:16:05;7.30;;;3.95;;
23250;SDS011;11794;49.730;10.088;2022-07-23T09:21:09;8.15;;;3.35;;
23250;SDS011;11794;49.730;10.088;2022-07-23T09:23:36;8.13;;;3.42;;
23250;SDS011;11794;49.730;10.088;2022-07-23T09:26:18;7.38;;;3.70;;
23250;SDS011;11794;49.730;10.088;2022-07-23T09:28:50;9.57;;;3.70;;
23250;SDS011;11794;49.730;10.088;2022-07-23T09:31:18;6.80;;;3.30;;
23250;SDS011;11794;49.730;10.088;2022-07-23T09:33:43;8.25;;;4.13;;
23250;SDS011;11794;49.730;10.088;2022-07-23T09:36:09;8.43;;;3.73;;
23250;SDS011;11794;49.730;10.088;2022-07-23T09:38:34;7.57;;;3.63;;
23250;SDS011;11794;49.730;10.088;2022-07-23T09:41:13;7.30;;;3.63;;
23250;SDS011;11794;49.730;10.088;2022-07-23T09:43:39;7.73;;;2.90;;
23250;SDS011;11794;49.730;10.088;2022-07-23T09:46:21;8.20;;;3.88;;
23250;SDS011;11794;49.730;10.088;2022-07-23T09:48:48;6.80;;;3.60;;
23250;SDS011;11794;49.730;10.088;2022-07-23T09:51:14;7.87;;;3.47;;
23250;SDS011;11794;49.730;10.088;2022-07-23T09:53:50;8.27;;;4.00;;
23250;SDS011;11794;49.730;10.088;2022-07-23T09:56:15;6.70;;;3.70;;
23250;SDS011;11794;49.730;10.088;2022-07-23T09:58:42;7.10;;;3.43;;
23250;SDS011;11794;49.730;10.088;2022-07-23T10:01:13;8.27;;;4.20;;
23250;SDS011;11794;49.730;10.088;2022-07-23T10:03:39;7.25;;;3.90;;
23250;SDS011;11794;49.730;10.088;2022-07-23T10:06:06;7.13;;;4.13;;
23250;SDS011;11794;49.730;10.088;2022-07-23T10:08:39;8.65;;;4.13;;
23250;SDS011;11794;49.730;10.088;2022-07-23T10:11:06;7.93;;;3.88;;
23250;SDS011;11794;49.730;10.088;2022-07-23T10:13:34;7.60;;;3.95;;
23250;SDS011;11794;49.730;10.088;2022-07-23T10:16:15;7.45;;;3.70;;
23250;SDS011;11794;49.730;10.088;2022-07-23T10:18:41;7.40;;;4.40;;
23250;SDS011;11794;49.730;10.088;2022-07-23T10:21:07;7.50;;;3.53;;
23250;SDS011;11794;49.730;10.088;2022-07-23T10:23:35;7.65;;;3.92;;
23250;SDS011;11794;49.730;10.088;2022-07-23T10:26:15;7.95;;;4.07;;
23250;SDS011;11794;49.730;10.088;2022-07-23T10:28:57;7.32;;;3.63;;
23250;SDS011;11794;49.730;10.088;2022-07-23T10:31:43;7.10;;;4.10;;
23250;SDS011;11794;49.730;10.088;2022-07-23T10:37:26;7.47;;;4.03;;
23250;SDS011;11794;49.730;10.088;2022-07-23T10:42:39;8.27;;;4.03;;
23250;SDS011;11794;49.730;10.088;2022-07-23T10:45:27;7.32;;;4.30;;
23250;SDS011;11794;49.730;10.088;2022-07-23T10:48:11;8.27;;;4.18;;
23250;SDS011;11794;49.730;10.088;2022-07-23T10:50:41;6.70;;;3.80;;
23250;SDS011;11794;49.730;10.088;2022-07-23T10:53:13;7.55;;;4.03;;
23250;SDS011;11794;49.730;10.088;2022-07-23T10:55:44;6.85;;;4.18;;
23250;SDS011;11794;49.730;10.088;2022-07-23T10:58:12;6.07;;;3.17;;
23250;SDS011;11794;49.730;10.088;2022-07-23T11:00:46;6.63;;;3.47;;
23250;SDS011;11794;49.730;10.088;2022-07-23T11:03:28;7.80;;;4.07;;
23250;SDS011;11794;49.730;10.088;2022-07-23T11:06:01;7.95;;;3.90;;
23250;SDS011;11794;49.730;10.088;2022-07-23T11:08:27;6.68;;;3.60;;
23250;SDS011;11794;49.730;10.088;2022-07-23T11:10:54;7.43;;;3.80;;
23250;SDS011;11794;49.730;10.088;2022-07-23T11:31:59;7.57;;;4.05;;
23250;SDS011;11794;49.730;10.088;2022-07-23T11:34:35;6.75;;;4.53;;
23250;SDS011;11794;49.730;10.088;2022-07-23T11:37:05;7.13;;;4.33;;
23250;SDS011;11794;49.730;10.088;2022-07-23T11:39:32;7.70;;;4.50;;
23250;SDS011;11794;49.730;10.088;2022-07-23T11:41:58;9.32;;;4.72;;
23250;SDS011;11794;49.730;10.088;2022-07-23T11:44:29;7.85;;;4.15;;
23250;SDS011;11794;49.730;10.088;2022-07-23T11:46:56;7.55;;;4.20;;
23250;SDS011;11794;49.730;10.088;2022-07-23T11:49:29;6.88;;;4.25;;
23250;SDS011;11794;49.730;10.088;2022-07-23T11:52:14;6.93;;;4.32;;
23250;SDS011;11794;49.730;10.088;2022-07-23T11:54:47;8.50;;;4.70;;
23250;SDS011;11794;49.730;10.088;2022-07-23T11:57:17;7.13;;;4.38;;
23250;SDS011;11794;49.730;10.088;2022-07-23T11:59:43;7.88;;;4.55;;
23250;SDS011;11794;49.730;10.088;2022-07-23T12:02:12;8.67;;;4.43;;
23250;SDS011;11794;49.730;10.088;2022-07-23T12:09:48;7.78;;;4.57;;
23250;SDS011;11794;49.730;10.088;2022-07-23T12:12:14;6.85;;;4.50;;
23250;SDS011;11794;49.730;10.088;2022-07-23T12:14:52;9.70;;;4.83;;
23250;SDS011;11794;49.730;10.088;2022-07-23T12:17:29;7.72;;;4.93;;
23250;SDS011;11794;49.730;10.088;2022-07-23T12:20:00;7.00;;;4.68;;
23250;SDS011;11794;49.730;10.088;2022-07-23T12:22:39;7.18;;;4.22;;
23250;SDS011;11794;49.730;10.088;2022-07-23T12:25:08;7.53;;;4.55;;
23250;SDS011;11794;49.730;10.088;2022-07-23T12:27:38;9.98;;;4.80;;
23250;SDS011;11794;49.730;10.088;2022-07-23T12:30:26;6.43;;;4.20;;
23250;SDS011;11794;49.730;10.088;2022-07-23T12:32:54;7.55;;;4.50;;
23250;SDS011;11794;49.730;10.088;2022-07-23T12:35:22;8.25;;;4.40;;
23250;SDS011;11794;49.730;10.088;2022-07-23T12:37:49;6.70;;;4.50;;
23250;SDS011;11794;49.730;10.088;2022-07-23T12:40:27;7.65;;;4.25;;
23250;SDS011;11794;49.730;10.088;2022-07-23T12:43:01;6.68;;;4.10;;
23250;SDS011;11794;49.730;10.088;2022-07-23T12:45:51;7.07;;;4.18;;
23250;SDS011;11794;49.730;10.088;2022-07-23T12:48:19;9.10;;;4.60;;
23250;SDS011;11794;49.730;10.088;2022-07-23T12:50:54;7.22;;;4.57;;
23250;SDS011;11794;49.730;10.088;2022-07-23T12:53:31;11.00;;;4.57;;
23250;SDS011;11794;49.730;10.088;2022-07-23T12:56:01;8.23;;;4.87;;
23250;SDS011;11794;49.730;10.088;2022-07-23T12:58:26;8.45;;;4.40;;
23250;SDS011;11794;49.730;10.088;2022-07-23T13:01:09;7.55;;;4.30;;
23250;SDS011;11794;49.730;10.088;2022-07-23T13:04:03;7.03;;;4.05;;
23250;SDS011;11794;49.730;10.088;2022-07-23T13:06:33;8.05;;;4.28;;
23250;SDS011;11794;49.730;10.088;2022-07-23T13:09:01;7.70;;;4.60;;
23250;SDS011;11794;49.730;10.088;2022-07-23T13:11:28;7.35;;;4.32;;
23250;SDS011;11794;49.730;10.088;2022-07-23T13:13:53;9.43;;;4.97;;
23250;SDS011;11794;49.730;10.088;2022-07-23T13:16:19;8.18;;;4.45;;
23250;SDS011;11794;49.730;10.088;2022-07-23T13:18:44;7.13;;;4.83;;
23250;SDS011;11794;49.730;10.088;2022-07-23T13:21:10;7.28;;;4.35;;
23250;SDS011;11794;49.730;10.088;2022-07-23T13:23:36;7.30;;;4.67;;
23250;SDS011;11794;49.730;10.088;2022-07-23T13:26:01;7.35;;;4.43;;
23250;SDS011;11794;49.730;10.088;2022-07-23T13:28:27;7.00;;;4.37;;
23250;SDS011;11794;49.730;10.088;2022-07-23T13:30:52;6.78;;;4.35;;
23250;SDS011;11794;49.730;10.088;2022-07-23T13:33:19;7.27;;;4.30;;
23250;SDS011;11794;49.730;10.088;2022-07-23T13:35:45;8.52;;;4.35;;
23250;SDS011;11794;49.730;10.088;2022-07-23T13:38:12;6.90;;;3.92;;
23250;SDS011;11794;49.730;10.088;2022-07-23T13:40:38;7.40;;;4.50;;
23250;SDS011;11794;49.730;10.088;2022-07-23T13:43:07;9.33;;;4.80;;
23250;SDS011;11794;49.730;10.088;2022-07-23T13:45:40;9.50;;;4.50;;
23250;SDS011;11794;49.730;10.088;2022-07-23T13:48:07;7.07;;;4.20;;
23250;SDS011;11794;49.730;10.088;2022-07-23T13:50:33;7.65;;;4.30;;
23250;SDS011;11794;49.730;10.088;2022-07-23T13:53:00;7.68;;;4.15;;
23250;SDS011;11794;49.730;10.088;2022-07-23T13:55:27;7.05;;;3.92;;
23250;SDS011;11794;49.730;10.088;2022-07-23T13:57:53;10.43;;;6.40;;
23250;SDS011;11794;49.730;10.088;2022-07-23T14:00:19;7.87;;;4.80;;
23250;SDS011;11794;49.730;10.088;2022-07-23T14:02:45;8.20;;;4.05;;
23250;SDS011;11794;49.730;10.088;2022-07-23T14:05:10;7.90;;;4.53;;
23250;SDS011;11794;49.730;10.088;2022-07-23T14:07:36;9.48;;;4.90;;
23250;SDS011;11794;49.730;10.088;2022-07-23T14:10:03;7.07;;;4.55;;
23250;SDS011;11794;49.730;10.088;2022-07-23T14:12:29;6.57;;;4.23;;
23250;SDS011;11794;49.730;10.088;2022-07-23T14:14:55;7.13;;;4.27;;
23250;SDS011;11794;49.730;10.088;2022-07-23T14:17:21;7.68;;;4.60;;
23250;SDS011;11794;49.730;10.088;2022-07-23T14:19:46;6.60;;;4.03;;
23250;SDS011;11794;49.730;10.088;2022-07-23T14:22:12;7.93;;;4.30;;
23250;SDS011;11794;49.730;10.088;2022-07-23T14:24:38;7.47;;;4.10;;
23250;SDS011;11794;49.730;10.088;2022-07-23T14:27:04;7.18;;;4.07;;
23250;SDS011;11794;49.730;10.088;2022-07-23T14:29:30;7.53;;;4.27;;
23250;SDS011;11794;49.730;10.088;2022-07-23T14:31:56;6.70;;;3.70;;
23250;SDS011;11794;49.730;10.088;2022-07-23T14:34:22;7.85;;;4.22;;
23250;SDS011;11794;49.730;10.088;2022-07-23T14:36:48;8.10;;;4.40;;
23250;SDS011;11794;49.730;10.088;2022-07-23T14:39:13;7.40;;;4.10;;
23250;SDS011;11794;49.730;10.088;2022-07-23T14:41:39;7.13;;;4.40;;
23250;SDS011;11794;49.730;10.088;2022-07-23T14:44:05;7.43;;;3.87;;
23250;SDS011;11794;49.730;10.088;2022-07-23T14:46:31;7.47;;;3.97;;
23250;SDS011;11794;49.730;10.088;2022-07-23T14:48:56;7.33;;;4.07;;
23250;SDS011;11794;49.730;10.088;2022-07-23T14:51:22;7.60;;;3.80;;
23250;SDS011;11794;49.730;10.088;2022-07-23T14:53:48;6.40;;;3.73;;
23250;SDS011;11794;49.730;10.088;2022-07-23T14:56:13;7.18;;;4.00;;
23250;SDS011;11794;49.730;10.088;2022-07-23T14:58:39;7.18;;;3.88;;
23250;SDS011;11794;49.730;10.088;2022-07-23T15:01:05;7.85;;;4.10;;
23250;SDS011;11794;49.730;10.088;2022-07-23T15:03:31;6.63;;;3.73;;
23250;SDS011;11794;49.730;10.088;2022-07-23T15:05:57;7.47;;;4.05;;
23250;SDS011;11794;49.730;10.088;2022-07-23T15:08:23;8.10;;;3.88;;
23250;SDS011;11794;49.730;10.088;2022-07-23T15:10:49;6.90;;;3.93;;
23250;SDS011;11794;49.730;10.088;2022-07-23T15:13:14;7.95;;;3.78;;